Time;durP1;ratioP1;P1;durP2;ratioP2;P2;SDS_P1;SDS_P2;PMS_P1;PMS_P2;Temp;Humidity;BMP_temperature;BMP_pressure;BME280_temperature;BME280_humidity;BME280_pressure;Samples;Min_cycle;Max_cycle;Signal;HPM_P1;HPM_P2
2023/04/16 00:00:02;;;;;;;6.40;2.70;;;;;;;8.86;69.06;96020.22;4979841;28;20181;-66
2023/04/16 00:02:28;;;;;;;4.73;2.60;;;;;;;8.92;69.00;96017.31;4981256;28;20697;-66
2023/04/16 00:04:53;;;;;;;11.43;3.40;;;;;;;8.91;69.01;96020.84;4983786;28;20580;-68
2023/04/16 00:07:19;;;;;;;4.20;2.57;;;;;;;8.99;68.77;96017.91;4978926;28;20239;-68
2023/04/16 00:09:45;;;;;;;5.37;3.00;;;;;;;8.88;69.71;96013.13;4987645;28;20181;-67
2023/04/16 00:12:11;;;;;;;3.43;2.93;;;;;;;8.86;70.00;96014.97;4993192;28;20201;-68
2023/04/16 00:14:36;;;;;;;3.00;2.70;;;;;;;8.90;69.21;96013.91;4973426;28;20802;-68
2023/04/16 00:17:02;;;;;;;3.23;2.93;;;;;;;8.90;69.60;96008.66;4975106;28;20260;-68
2023/04/16 00:19:27;;;;;;;3.40;3.00;;;;;;;8.89;69.55;96012.22;4985050;28;20317;-68
2023/04/16 00:21:53;;;;;;;3.10;2.80;;;;;;;8.90;69.75;96014.78;4970567;28;20852;-68
2023/04/16 00:24:18;;;;;;;3.40;2.90;;;;;;;8.97;69.47;96014.50;4986315;28;20252;-68
2023/04/16 00:26:45;;;;;;;3.27;2.97;;;;;;;8.96;68.48;96010.19;4980320;28;20597;-67
2023/04/16 00:29:11;;;;;;;4.20;2.97;;;;;;;8.95;69.46;96011.09;4982079;28;20590;-67
2023/04/16 00:31:36;;;;;;;6.60;3.47;;;;;;;8.92;69.37;96012.06;4972675;28;20452;-67
2023/04/16 00:34:02;;;;;;;2.70;2.50;;;;;;;8.90;68.81;96020.00;4987940;28;20427;-67
2023/04/16 00:36:28;;;;;;;4.97;2.60;;;;;;;8.85;69.50;96015.88;4979558;28;20666;-67
2023/04/16 00:38:55;;;;;;;3.63;2.53;;;;;;;8.92;69.07;96014.69;4974864;28;20173;-68
2023/04/16 00:41:21;;;;;;;3.40;3.10;;;;;;;8.95;68.99;96013.69;4984774;28;20264;-68
2023/04/16 00:43:48;;;;;;;4.80;3.33;;;;;;;9.00;69.54;96015.22;4970869;28;20460;-68
2023/04/16 00:46:15;;;;;;;3.40;3.10;;;;;;;9.00;69.06;96011.72;4977766;28;20424;-68
2023/04/16 00:48:42;;;;;;;4.20;3.17;;;;;;;8.96;69.99;96015.41;4973184;28;20452;-68
2023/04/16 00:51:09;;;;;;;3.13;2.93;;;;;;;8.94;70.04;96019.88;4984063;28;20452;-69
2023/04/16 00:53:35;;;;;;;5.73;4.10;;;;;;;8.88;70.69;96016.59;4968945;28;20429;-68
2023/04/16 00:56:05;;;;;;;3.63;3.33;;;;;;;8.78;70.31;96014.44;4978887;28;20549;-68
2023/04/16 00:58:32;;;;;;;4.00;3.40;;;;;;;8.95;69.58;96011.09;4984566;28;20529;-68
2023/04/16 01:00:58;;;;;;;4.37;3.80;;;;;;;8.86;70.48;96017.59;4977391;28;20444;-67
2023/04/16 01:03:36;;;;;;;4.43;4.03;;;;;;;8.87;70.84;96019.28;4984943;28;20428;-68
2023/04/16 01:06:01;;;;;;;6.73;4.13;;;;;;;8.89;70.66;96014.84;4978934;28;20493;-67
2023/04/16 01:08:27;;;;;;;4.30;3.90;;;;;;;8.92;70.67;96014.69;4975328;28;20424;-67
2023/04/16 01:10:52;;;;;;;4.10;3.70;;;;;;;8.82;70.99;96014.25;4972256;28;20201;-67
2023/04/16 01:13:18;;;;;;;4.10;3.70;;;;;;;8.90;70.93;96017.41;4971566;28;20169;-67
2023/04/16 01:15:43;;;;;;;3.83;3.53;;;;;;;8.91;70.77;96015.63;4985609;28;20188;-67
2023/04/16 01:18:16;;;;;;;5.00;4.60;;;;;;;8.85;70.56;96016.72;4978387;28;20596;-69
2023/04/16 01:20:41;;;;;;;4.77;4.23;;;;;;;8.73;70.91;96013.78;4974368;28;20205;-67
2023/04/16 01:23:07;;;;;;;5.10;4.60;;;;;;;8.84;71.44;96019.41;4980516;28;20907;-67
2023/04/16 01:25:32;;;;;;;4.57;4.17;;;;;;;8.88;70.36;96018.34;4968275;28;20197;-67
2023/04/16 01:27:58;;;;;;;4.13;3.73;;;;;;;8.90;70.93;96019.13;4969758;28;20204;-68
2023/04/16 01:30:24;;;;;;;4.97;4.57;;;;;;;8.85;70.59;96021.09;4985383;28;20683;-67
2023/04/16 01:32:49;;;;;;;4.53;4.13;;;;;;;8.88;70.58;96019.22;4979194;28;20702;-68
2023/04/16 01:35:16;;;;;;;4.67;4.17;;;;;;;8.92;70.13;96019.91;4986854;28;20503;-67
2023/04/16 01:37:42;;;;;;;5.73;5.13;;;;;;;8.94;70.81;96030.34;4986444;28;20270;-67
2023/04/16 01:40:08;;;;;;;5.13;4.63;;;;;;;8.92;70.04;96027.78;4984687;28;20886;-67
2023/04/16 01:42:34;;;;;;;6.30;3.87;;;;;;;8.96;69.42;96029.34;4971939;28;20203;-67
2023/04/16 01:45:00;;;;;;;4.47;3.90;;;;;;;8.97;70.25;96027.56;4981382;28;20217;-67
2023/04/16 01:47:26;;;;;;;3.93;3.63;;;;;;;8.98;69.22;96024.91;4986918;28;20849;-66
2023/04/16 01:49:51;;;;;;;3.67;3.30;;;;;;;8.86;70.37;96028.91;4969131;28;20606;-67
2023/04/16 01:52:17;;;;;;;4.10;3.40;;;;;;;8.88;70.39;96027.06;4982451;28;20296;-68
2023/04/16 01:54:42;;;;;;;4.30;3.70;;;;;;;8.92;69.94;96027.78;4968334;28;20182;-67
2023/04/16 01:57:08;;;;;;;4.33;3.90;;;;;;;8.86;70.68;96031.53;4967583;28;20173;-68
2023/04/16 01:59:33;;;;;;;5.00;4.27;;;;;;;8.81;70.76;96030.88;4967735;28;20200;-68
2023/04/16 02:02:10;;;;;;;4.90;4.40;;;;;;;8.77;70.91;96028.44;4983724;28;20209;-68
2023/04/16 02:04:37;;;;;;;4.53;4.13;;;;;;;8.77;71.00;96023.22;4968918;28;20212;-67
2023/04/16 02:07:03;;;;;;;4.30;3.90;;;;;;;8.82;71.19;96026.47;4982624;28;20926;-68
2023/04/16 02:09:29;;;;;;;4.87;4.37;;;;;;;8.85;70.67;96023.72;4986096;28;20424;-68
2023/04/16 02:11:54;;;;;;;5.23;4.67;;;;;;;8.90;70.65;96024.38;4969158;28;20449;-68
2023/04/16 02:14:21;;;;;;;5.20;4.70;;;;;;;8.94;71.07;96020.72;4982964;28;20185;-68
2023/04/16 02:16:47;;;;;;;5.70;4.67;;;;;;;8.86;71.16;96022.81;4969697;28;20193;-68
2023/04/16 02:19:12;;;;;;;9.00;4.57;;;;;;;8.87;71.51;96024.50;4971690;28;20432;-68
2023/04/16 02:21:37;;;;;;;4.50;3.90;;;;;;;8.80;71.42;96017.84;4988352;28;20204;-68
2023/04/16 02:24:03;;;;;;;4.80;4.40;;;;;;;8.88;71.55;96018.34;4980954;28;20722;-68
2023/04/16 02:26:29;;;;;;;5.80;5.20;;;;;;;8.86;71.92;96021.06;4990106;28;20183;-68
2023/04/16 02:28:54;;;;;;;6.03;4.57;;;;;;;8.80;71.66;96021.31;4990051;28;20226;-68
2023/04/16 02:31:21;;;;;;;4.90;4.50;;;;;;;8.85;72.11;96021.94;4975685;28;20674;-68
2023/04/16 02:33:46;;;;;;;5.43;4.93;;;;;;;8.85;71.46;96023.72;4987089;28;20177;-68
2023/04/16 02:36:12;;;;;;;5.70;5.00;;;;;;;8.85;71.66;96023.72;4988534;28;21179;-66
2023/04/16 02:38:37;;;;;;;5.03;4.63;;;;;;;8.88;71.81;96020.97;4989807;28;20268;-66
2023/04/16 02:41:03;;;;;;;5.20;4.70;;;;;;;8.85;71.78;96026.34;4989906;28;20674;-67
2023/04/16 02:43:28;;;;;;;7.37;5.83;;;;;;;8.88;71.82;96032.31;4989983;28;20176;-67
2023/04/16 02:45:54;;;;;;;7.90;7.13;;;;;;;8.83;72.44;96029.00;4988458;28;20220;-67
2023/04/16 02:48:19;;;;;;;6.90;6.20;;;;;;;8.87;72.55;96027.13;4970896;28;20360;-67
2023/04/16 02:50:44;;;;;;;6.27;5.60;;;;;;;8.93;71.73;96031.22;4970912;28;20632;-67
2023/04/16 02:53:10;;;;;;;8.43;6.47;;;;;;;8.82;72.80;96029.94;4971048;28;20192;-67
2023/04/16 02:55:35;;;;;;;6.73;5.23;;;;;;;8.89;71.53;96025.28;4987412;28;20176;-66
2023/04/16 02:58:01;;;;;;;5.50;5.00;;;;;;;8.89;72.27;96031.38;4971105;28;20783;-66
2023/04/16 03:00:26;;;;;;;5.67;5.07;;;;;;;8.90;72.26;96016.50;4970700;28;20721;-69
2023/04/16 03:02:52;;;;;;;6.40;5.30;;;;;;;8.90;71.92;96025.25;4970898;28;20935;-67
2023/04/16 03:05:17;;;;;;;5.07;4.63;;;;;;;8.81;72.03;96028.25;4991749;28;20231;-67
2023/04/16 03:07:43;;;;;;;6.50;5.13;;;;;;;8.92;71.45;96027.78;4972944;28;20240;-67
2023/04/16 03:10:10;;;;;;;7.80;4.80;;;;;;;8.93;72.05;96021.63;4989804;28;20181;-67
2023/04/16 03:12:36;;;;;;;6.80;5.63;;;;;;;8.96;71.38;96025.88;4977144;28;20177;-67
2023/04/16 03:15:02;;;;;;;5.40;4.90;;;;;;;8.85;71.76;96027.19;4970778;28;20967;-67
2023/04/16 03:17:27;;;;;;;7.83;6.20;;;;;;;8.96;70.76;96026.72;4986263;28;20195;-68
2023/04/16 03:19:53;;;;;;;6.90;5.60;;;;;;;8.93;70.62;96018.16;4979960;28;20421;-67
2023/04/16 03:22:18;;;;;;;5.60;5.10;;;;;;;8.90;71.64;96024.38;4970565;28;20284;-67
2023/04/16 03:24:44;;;;;;;7.60;4.90;;;;;;;8.87;71.64;96035.81;4970434;28;20619;-68
2023/04/16 03:27:09;;;;;;;4.70;4.30;;;;;;;8.90;71.08;96032.22;4983418;28;20200;-67
2023/04/16 03:29:38;;;;;;;5.33;4.83;;;;;;;8.87;70.88;96030.59;4972827;28;20672;-68
2023/04/16 03:32:03;;;;;;;8.77;5.10;;;;;;;8.89;71.32;96041.00;4974843;28;20228;-67
2023/04/16 03:34:29;;;;;;;4.90;4.50;;;;;;;8.91;71.36;96028.69;4970444;28;20523;-68
2023/04/16 03:36:54;;;;;;;6.00;5.40;;;;;;;8.90;71.73;96027.88;4993165;28;20260;-67
2023/04/16 03:39:20;;;;;;;5.80;5.30;;;;;;;8.87;71.92;96034.97;5000380;28;20180;-68
2023/04/16 03:41:45;;;;;;;5.10;4.50;;;;;;;8.89;71.66;96041.84;4971601;28;20205;-67
2023/04/16 03:44:11;;;;;;;6.97;4.80;;;;;;;8.89;71.47;96038.38;4988761;28;20954;-66
2023/04/16 03:46:36;;;;;;;4.27;3.87;;;;;;;8.88;72.07;96044.50;4976874;28;20235;-67
2023/04/16 03:49:02;;;;;;;4.40;4.00;;;;;;;8.84;71.43;96048.19;4971030;28;20182;-67
2023/04/16 03:51:27;;;;;;;4.33;3.53;;;;;;;8.87;71.35;96042.81;4969951;28;20663;-66
2023/04/16 03:53:53;;;;;;;4.13;3.60;;;;;;;8.85;71.41;96037.66;4969723;28;20177;-67
2023/04/16 03:56:18;;;;;;;5.50;4.20;;;;;;;8.89;71.84;96041.00;4979732;28;20177;-67
2023/04/16 03:58:43;;;;;;;8.67;6.03;;;;;;;8.85;72.06;96047.28;4976633;28;20209;-67
2023/04/16 04:01:09;;;;;;;4.10;3.70;;;;;;;8.92;71.44;96051.31;4978854;28;20251;-67
2023/04/16 04:03:34;;;;;;;5.60;4.50;;;;;;;8.88;72.53;96052.38;4979945;28;20177;-67
2023/04/16 04:06:00;;;;;;;4.50;4.10;;;;;;;8.88;72.89;96049.75;4979564;28;20206;-67
2023/04/16 04:08:25;;;;;;;4.20;3.80;;;;;;;8.87;73.01;96048.06;4978368;28;20174;-68
2023/04/16 04:10:50;;;;;;;5.03;4.40;;;;;;;8.93;72.99;96053.03;4970263;28;20205;-68
2023/04/16 04:13:16;;;;;;;5.53;4.70;;;;;;;8.90;72.38;96048.78;4982909;28;20172;-68
2023/04/16 04:15:43;;;;;;;11.20;5.00;;;;;;;8.88;72.24;96062.84;4972864;28;20271;-67
2023/04/16 04:18:08;;;;;;;10.87;4.50;;;;;;;8.88;72.71;96062.84;4980773;28;20280;-67
2023/04/16 04:20:38;;;;;;;6.80;4.43;;;;;;;8.88;72.55;96061.09;4977955;28;20464;-67
2023/04/16 04:23:04;;;;;;;6.90;5.07;;;;;;;8.87;73.04;96058.53;4970627;28;20178;-67
2023/04/16 04:25:29;;;;;;;7.30;5.70;;;;;;;8.85;73.43;96055.13;4976945;28;20490;-68
2023/04/16 04:27:55;;;;;;;8.03;5.20;;;;;;;8.92;73.33;96068.81;4979066;28;20650;-68
2023/04/16 04:30:20;;;;;;;7.07;5.70;;;;;;;8.88;73.05;96061.09;4978766;28;20193;-66
2023/04/16 04:32:46;;;;;;;5.23;4.73;;;;;;;8.87;72.60;96056.75;4976787;28;20161;-66
2023/04/16 04:35:11;;;;;;;7.77;5.60;;;;;;;8.93;72.62;96062.63;4974259;28;20177;-66
2023/04/16 04:37:36;;;;;;;6.07;5.47;;;;;;;8.86;73.52;96060.31;4980888;28;20204;-67
2023/04/16 04:40:02;;;;;;;6.03;5.10;;;;;;;8.89;72.95;96068.00;4968599;28;20195;-67
2023/04/16 04:42:27;;;;;;;5.93;5.20;;;;;;;8.92;73.12;96061.78;4987853;28;20201;-66
2023/04/16 04:44:53;;;;;;;7.37;5.20;;;;;;;8.96;73.35;96066.00;4984338;28;20202;-67
2023/04/16 04:47:18;;;;;;;6.17;5.20;;;;;;;9.00;73.14;96070.19;4977493;28;20796;-67
2023/04/16 04:49:44;;;;;;;5.47;4.77;;;;;;;9.01;72.86;96071.03;4968982;28;20177;-67
2023/04/16 04:52:10;;;;;;;5.63;4.23;;;;;;;8.97;73.17;96072.91;4977481;28;20291;-67
2023/04/16 04:54:36;;;;;;;4.70;4.30;;;;;;;8.96;73.15;96078.22;4978909;28;20173;-67
2023/04/16 04:57:01;;;;;;;5.80;5.20;;;;;;;9.02;73.35;96084.03;4983618;28;21113;-67
2023/04/16 04:59:27;;;;;;;7.67;5.70;;;;;;;9.01;73.69;96069.25;4968791;28;20173;-67
2023/04/16 05:01:52;;;;;;;5.93;4.70;;;;;;;9.08;73.46;96075.09;4968752;28;20689;-67
2023/04/16 05:04:18;;;;;;;5.10;4.23;;;;;;;9.09;73.21;96082.88;4969198;28;20197;-67
2023/04/16 05:06:43;;;;;;;4.87;4.47;;;;;;;9.02;72.67;96081.41;4984219;28;20181;-67
2023/04/16 05:09:10;;;;;;;6.10;5.50;;;;;;;9.08;72.25;96077.69;4968707;28;20270;-67
2023/04/16 05:11:40;;;;;;;5.50;4.43;;;;;;;9.13;73.24;96086.19;4968393;28;20646;-67
2023/04/16 05:14:05;;;;;;;9.23;4.30;;;;;;;9.15;72.37;96086.97;4976493;28;20526;-67
2023/04/16 05:16:31;;;;;;;6.73;4.50;;;;;;;9.14;73.35;96097.50;4991712;28;20528;-67
2023/04/16 05:18:56;;;;;;;15.47;4.93;;;;;;;9.09;73.25;96090.72;4969667;28;20921;-67
2023/04/16 05:21:22;;;;;;;8.10;4.63;;;;;;;9.22;72.95;96087.56;4969503;28;20185;-67
2023/04/16 05:23:48;;;;;;;10.93;3.90;;;;;;;9.11;74.18;96094.09;4968360;28;20173;-67
2023/04/16 05:26:13;;;;;;;5.77;3.73;;;;;;;9.20;72.95;96090.25;4968954;28;20177;-67
2023/04/16 05:28:38;;;;;;;6.50;3.50;;;;;;;9.20;73.31;96095.47;4987267;28;20279;-67
2023/04/16 05:31:04;;;;;;;4.30;3.53;;;;;;;9.23;72.85;96089.25;4983449;28;20578;-67
2023/04/16 05:33:29;;;;;;;4.30;3.50;;;;;;;9.23;72.58;96094.50;4968871;28;20181;-67
2023/04/16 05:35:55;;;;;;;3.10;2.80;;;;;;;9.24;73.18;96099.69;4982464;28;20255;-67
2023/04/16 05:38:20;;;;;;;4.40;2.80;;;;;;;9.26;71.98;96100.47;4986180;28;20237;-67
2023/04/16 05:40:45;;;;;;;19.37;4.83;;;;;;;9.25;72.42;96103.13;4986870;28;20280;-67
2023/04/16 05:43:11;;;;;;;5.67;2.27;;;;;;;9.31;72.35;96101.13;4978811;28;20180;-67
2023/04/16 05:45:40;;;;;;;13.97;4.20;;;;;;;9.36;72.15;96102.69;4987851;28;20208;-67
2023/04/16 05:48:09;;;;;;;5.03;2.60;;;;;;;9.23;72.29;96108.44;4976310;28;20224;-67
2023/04/16 05:50:35;;;;;;;22.37;4.17;;;;;;;9.37;72.57;96113.06;4994666;28;20448;-67
2023/04/16 05:53:01;;;;;;;10.53;2.60;;;;;;;9.38;72.01;96111.31;4979745;28;20909;-68
2023/04/16 05:55:27;;;;;;;10.10;2.30;;;;;;;9.41;71.54;96112.03;4990479;28;20412;-67
2023/04/16 05:57:52;;;;;;;2.73;1.97;;;;;;;9.27;71.46;96111.78;4982061;28;20984;-67
2023/04/16 06:00:18;;;;;;;5.17;2.20;;;;;;;9.29;71.94;96123.03;4980672;28;20173;-67
2023/04/16 06:02:43;;;;;;;3.10;1.83;;;;;;;9.31;71.84;96116.81;4986867;28;20195;-67
2023/04/16 06:05:09;;;;;;;7.00;2.10;;;;;;;9.34;71.77;96118.47;4980217;28;20200;-67
2023/04/16 06:07:34;;;;;;;3.20;2.20;;;;;;;9.26;72.85;96116.19;4968785;28;20228;-67
2023/04/16 06:10:00;;;;;;;4.50;1.80;;;;;;;9.32;72.73;96122.91;4984446;28;20188;-67
2023/04/16 06:12:26;;;;;;;2.10;1.90;;;;;;;9.33;71.78;96127.25;4980877;28;20268;-67
2023/04/16 06:14:51;;;;;;;4.73;2.00;;;;;;;9.39;72.13;96134.81;4985692;28;20169;-67
2023/04/16 06:17:17;;;;;;;11.30;2.43;;;;;;;9.43;72.43;96125.06;4969010;28;20614;-67
2023/04/16 06:19:43;;;;;;;7.53;2.33;;;;;;;9.47;72.27;96122.25;4966845;28;20268;-66
2023/04/16 06:22:08;;;;;;;11.83;2.70;;;;;;;9.44;71.78;96118.91;4978235;28;20523;-67
2023/04/16 06:24:34;;;;;;;6.73;2.83;;;;;;;9.37;72.14;96126.16;4972787;28;20237;-67
2023/04/16 06:27:00;;;;;;;7.97;2.20;;;;;;;9.33;72.15;96125.47;4972727;28;20180;-67
2023/04/16 06:29:25;;;;;;;10.67;2.80;;;;;;;9.28;73.28;96126.56;4980669;28;20184;-66
2023/04/16 06:31:51;;;;;;;2.37;1.93;;;;;;;9.39;73.07;96126.97;4983673;28;20212;-67
2023/04/16 06:34:16;;;;;;;6.17;2.10;;;;;;;9.32;73.29;96129.00;4983610;28;20247;-67
2023/04/16 06:36:41;;;;;;;4.13;3.00;;;;;;;9.45;71.96;96137.19;4972431;28;20677;-66
2023/04/16 06:39:07;;;;;;;2.20;1.80;;;;;;;9.59;71.07;96140.94;4975703;28;20186;-67
2023/04/16 06:41:32;;;;;;;2.30;1.80;;;;;;;9.38;72.49;96135.75;4976176;28;20213;-66
2023/04/16 06:43:58;;;;;;;2.70;2.10;;;;;;;9.39;72.59;96142.66;4974311;28;20189;-67
2023/04/16 06:46:23;;;;;;;2.90;1.97;;;;;;;9.27;73.15;96148.44;4970703;28;20173;-67
2023/04/16 06:48:48;;;;;;;8.03;2.00;;;;;;;9.40;73.47;96147.00;4985830;28;20257;-67
2023/04/16 06:51:14;;;;;;;3.37;1.80;;;;;;;9.47;73.34;96143.22;4976948;28;20612;-67
2023/04/16 06:53:41;;;;;;;4.33;2.00;;;;;;;9.51;73.21;96146.53;4991640;28;20212;-67
2023/04/16 06:56:07;;;;;;;13.03;2.70;;;;;;;9.52;72.80;96151.72;4973583;28;20170;-67
2023/04/16 06:58:32;;;;;;;3.83;2.37;;;;;;;9.56;72.54;96146.31;4966933;28;20425;-67
2023/04/16 07:00:58;;;;;;;5.60;1.90;;;;;;;9.42;73.33;96144.31;4967615;28;20209;-67
2023/04/16 07:03:23;;;;;;;9.33;2.43;;;;;;;9.60;72.10;96142.66;4979252;28;20227;-67
2023/04/16 07:05:48;;;;;;;3.10;1.70;;;;;;;9.51;72.31;96144.75;4989169;28;20233;-67
2023/04/16 07:08:14;;;;;;;3.20;1.50;;;;;;;9.56;72.33;96151.56;4980959;28;20185;-66
2023/04/16 07:10:39;;;;;;;5.17;1.80;;;;;;;9.50;72.86;96150.91;4983563;28;20614;-66
2023/04/16 07:13:05;;;;;;;4.73;1.90;;;;;;;9.54;72.47;96152.50;4972185;28;20177;-67
2023/04/16 07:15:30;;;;;;;10.43;2.83;;;;;;;9.59;73.44;96147.06;4978786;28;20650;-67
2023/04/16 07:17:56;;;;;;;3.27;1.77;;;;;;;9.73;72.61;96154.28;4986308;28;20537;-66
2023/04/16 07:20:21;;;;;;;2.07;1.67;;;;;;;9.68;71.82;96151.00;4975311;28;21014;-66
2023/04/16 07:22:47;;;;;;;3.73;2.17;;;;;;;9.64;71.91;96145.06;4975222;28;20185;-66
2023/04/16 07:25:12;;;;;;;5.40;1.93;;;;;;;9.75;72.33;96149.81;4970661;28;20233;-67
2023/04/16 07:27:37;;;;;;;18.60;2.40;;;;;;;9.84;72.02;96152.03;4977664;28;20178;-66
2023/04/16 07:30:03;;;;;;;6.20;1.93;;;;;;;9.78;72.62;96157.56;4977218;28;20181;-67
2023/04/16 07:32:29;;;;;;;2.37;1.60;;;;;;;9.83;72.27;96160.84;4983622;28;20627;-67
2023/04/16 07:34:55;;;;;;;7.83;2.40;;;;;;;9.80;72.41;96153.09;4983571;28;20468;-67
2023/04/16 07:37:21;;;;;;;8.53;2.80;;;;;;;9.93;72.11;96159.50;4978439;28;20284;-67
2023/04/16 07:39:46;;;;;;;9.80;2.10;;;;;;;9.99;71.85;96160.13;4979768;28;20905;-67
2023/04/16 07:42:12;;;;;;;4.77;1.73;;;;;;;10.01;71.02;96167.00;4983535;28;20458;-66
2023/04/16 07:44:38;;;;;;;4.43;1.80;;;;;;;10.05;71.43;96165.94;4988974;28;20785;-67
2023/04/16 07:47:03;;;;;;;3.00;1.67;;;;;;;9.99;72.66;96165.38;4986911;28;20448;-69
2023/04/16 07:49:29;;;;;;;2.80;1.83;;;;;;;10.03;71.20;96167.78;4970508;28;20166;-68
2023/04/16 07:51:54;;;;;;;2.60;1.30;;;;;;;10.01;72.23;96171.41;4988556;28;20243;-68
2023/04/16 07:54:20;;;;;;;3.33;1.97;;;;;;;10.04;72.09;96174.75;4978919;28;20180;-68
2023/04/16 07:56:45;;;;;;;5.80;1.60;;;;;;;9.99;71.81;96171.44;4971582;28;20169;-68
2023/04/16 07:59:10;;;;;;;6.30;1.67;;;;;;;10.02;71.65;96178.34;4981785;28;20212;-68
2023/04/16 08:01:36;;;;;;;3.60;2.00;;;;;;;10.18;71.39;96184.56;4978312;28;20208;-68
2023/04/16 08:04:05;;;;;;;11.90;2.50;;;;;;;10.03;72.19;96173.03;4975135;28;20185;-68
2023/04/16 08:06:30;;;;;;;9.13;2.43;;;;;;;10.24;71.86;96188.72;4968911;28;20746;-68
2023/04/16 08:08:55;;;;;;;5.00;2.20;;;;;;;10.24;72.19;96186.94;4986445;28;20420;-68
2023/04/16 08:11:21;;;;;;;4.00;2.03;;;;;;;10.20;72.42;96187.13;4977542;28;20209;-68
2023/04/16 08:13:46;;;;;;;5.00;1.83;;;;;;;10.33;71.55;96191.78;4977067;28;20185;-67
2023/04/16 08:16:12;;;;;;;10.73;2.63;;;;;;;10.35;71.16;96195.19;4985479;28;20176;-68
2023/04/16 08:18:37;;;;;;;7.70;2.20;;;;;;;10.29;70.66;96199.88;4988614;28;20577;-68
2023/04/16 08:21:03;;;;;;;2.83;2.10;;;;;;;10.32;71.35;96200.59;4982367;28;20288;-67
2023/04/16 08:23:28;;;;;;;2.50;1.90;;;;;;;10.18;70.45;96197.69;4969334;28;20169;-67
2023/04/16 08:25:54;;;;;;;2.17;1.80;;;;;;;10.26;70.69;96203.44;4969101;28;20220;-67
2023/04/16 08:28:19;;;;;;;13.03;3.27;;;;;;;10.33;71.03;96206.69;4976847;28;20181;-67
2023/04/16 08:30:45;;;;;;;5.73;2.50;;;;;;;10.42;71.64;96206.25;4976988;28;20686;-68
2023/04/16 08:33:12;;;;;;;1.97;1.53;;;;;;;10.38;71.44;96208.16;4972278;28;20173;-67
2023/04/16 08:35:42;;;;;;;3.57;2.03;;;;;;;10.38;71.42;96215.19;4985871;28;20242;-68
2023/04/16 08:38:07;;;;;;;10.43;2.00;;;;;;;10.44;70.84;96214.03;4976523;28;20508;-68
2023/04/16 08:40:36;;;;;;;3.50;1.73;;;;;;;10.42;71.01;96216.75;4966535;28;20553;-68
2023/04/16 08:43:08;;;;;;;2.57;1.80;;;;;;;10.33;70.85;96210.16;4980093;28;20226;-68
2023/04/16 08:45:34;;;;;;;2.70;2.13;;;;;;;10.37;71.27;96216.13;4985321;28;20459;-67
2023/04/16 08:48:00;;;;;;;9.73;2.70;;;;;;;10.53;69.58;96222.31;4976112;28;20419;-67
2023/04/16 08:50:27;;;;;;;4.10;1.60;;;;;;;10.46;70.62;96215.66;4984143;28;20840;-67
2023/04/16 08:52:57;;;;;;;3.73;1.80;;;;;;;10.56;70.67;96211.72;4985203;28;20506;-67
2023/04/16 08:55:29;;;;;;;4.83;2.30;;;;;;;10.40;70.45;96217.75;4984982;28;20448;-67
2023/04/16 08:57:59;;;;;;;10.23;2.80;;;;;;;10.40;70.41;96223.84;4984829;28;20408;-67
2023/04/16 09:00:25;;;;;;;5.83;2.20;;;;;;;10.44;70.06;96228.03;4985609;28;20526;-67
2023/04/16 09:02:52;;;;;;;12.00;3.27;;;;;;;10.53;70.50;96229.34;4984861;28;20416;-68
2023/04/16 09:05:19;;;;;;;7.43;2.57;;;;;;;10.47;69.84;96230.50;4984730;28;20503;-67
2023/04/16 09:07:46;;;;;;;4.90;2.27;;;;;;;10.54;70.40;96237.16;4984504;28;20422;-68
2023/04/16 09:10:13;;;;;;;4.30;2.13;;;;;;;10.50;69.34;96237.38;4984233;28;20416;-67
2023/04/16 09:12:41;;;;;;;3.90;3.33;;;;;;;10.50;70.00;96242.63;4985165;28;20420;-68
2023/04/16 09:15:09;;;;;;;3.90;2.57;;;;;;;10.64;69.86;96242.00;4985391;28;20420;-68
2023/04/16 09:17:35;;;;;;;5.10;3.00;;;;;;;10.57;69.58;96246.66;4978697;28;20479;-68
2023/04/16 09:20:00;;;;;;;2.40;1.87;;;;;;;10.61;69.81;96250.88;4984236;28;20455;-67
2023/04/16 09:22:26;;;;;;;4.80;2.07;;;;;;;10.51;69.26;96242.56;4966107;28;20340;-68
2023/04/16 09:24:51;;;;;;;7.83;2.97;;;;;;;10.46;68.63;96239.28;4974731;28;20211;-67
2023/04/16 09:27:16;;;;;;;4.27;2.77;;;;;;;10.64;68.64;96242.84;4983116;28;20169;-67
2023/04/16 09:29:42;;;;;;;3.47;2.20;;;;;;;10.64;68.46;96242.84;4975791;28;20188;-67
2023/04/16 09:32:10;;;;;;;3.77;2.20;;;;;;;10.74;68.26;96248.50;4984518;28;20196;-69
2023/04/16 09:34:52;;;;;;;9.87;2.70;;;;;;;10.82;67.37;96243.75;4968122;28;20177;-68
2023/04/16 09:37:18;;;;;;;7.23;2.53;;;;;;;10.78;67.05;96255.31;4970141;28;20432;-67
2023/04/16 09:39:51;;;;;;;3.87;2.67;;;;;;;10.64;67.48;96252.50;4974729;28;20417;-68
2023/04/16 09:42:22;;;;;;;3.00;2.03;;;;;;;10.77;67.40;96254.47;4974689;28;21108;-67
2023/04/16 09:44:48;;;;;;;2.03;1.77;;;;;;;10.66;66.96;96254.13;4983681;28;20990;-68
2023/04/16 09:47:14;;;;;;;7.23;3.20;;;;;;;10.81;67.63;96250.75;4983960;28;20612;-68
2023/04/16 09:49:42;;;;;;;7.57;2.60;;;;;;;10.75;68.04;96258.09;4970034;28;20878;-67
2023/04/16 09:52:17;;;;;;;3.07;2.70;;;;;;;10.82;67.03;96254.25;4971031;28;20276;-68
2023/04/16 09:54:52;;;;;;;2.83;2.20;;;;;;;10.81;67.60;96261.25;4981849;28;20439;-69
2023/04/16 09:57:57;;;;;;;6.30;3.00;;;;;;;10.74;68.41;96259.84;4975101;28;20428;-68
2023/04/16 10:00:22;;;;;;;6.00;3.40;;;;;;;10.87;69.14;96259.28;4954499;28;20463;-67
2023/04/16 10:02:48;;;;;;;7.03;3.50;;;;;;;10.71;67.90;96267.88;4978649;28;20459;-68
2023/04/16 10:05:17;;;;;;;4.13;2.80;;;;;;;10.84;67.39;96269.91;4977431;28;20607;-67
2023/04/16 10:07:43;;;;;;;6.53;4.43;;;;;;;10.81;67.40;96263.88;4984993;28;20507;-68
2023/04/16 10:10:09;;;;;;;3.30;3.00;;;;;;;10.69;67.97;96282.00;4980385;28;21074;-68
2023/04/16 10:12:34;;;;;;;3.93;3.00;;;;;;;10.62;68.07;96273.53;4971951;28;21071;-68
2023/04/16 10:15:00;;;;;;;4.17;3.77;;;;;;;10.70;67.68;96266.19;4975977;28;20503;-68
2023/04/16 10:17:28;;;;;;;3.03;2.50;;;;;;;10.81;66.97;96277.00;4982620;28;20890;-67
2023/04/16 10:19:55;;;;;;;2.97;2.43;;;;;;;10.77;66.97;96271.97;4984591;28;20416;-68
2023/04/16 10:22:20;;;;;;;3.73;3.20;;;;;;;10.69;67.61;96280.22;4986312;28;20556;-68
2023/04/16 10:24:46;;;;;;;17.53;4.40;;;;;;;10.72;68.32;96266.94;4977338;28;20892;-67
2023/04/16 10:27:12;;;;;;;15.83;3.90;;;;;;;10.74;68.69;96275.59;4978278;28;20185;-69
2023/04/16 10:29:38;;;;;;;7.33;3.13;;;;;;;10.84;67.64;96275.16;4981765;28;20446;-67
2023/04/16 10:32:05;;;;;;;3.53;3.10;;;;;;;10.87;68.21;96277.66;4979682;28;20726;-68
2023/04/16 10:34:31;;;;;;;2.97;2.67;;;;;;;10.95;67.63;96283.41;4982584;28;20647;-67
2023/04/16 10:36:56;;;;;;;4.93;2.80;;;;;;;10.93;67.25;96283.47;4969870;28;20420;-67
2023/04/16 10:39:23;;;;;;;3.97;3.03;;;;;;;11.01;67.79;96277.88;4974545;28;20187;-67
2023/04/16 10:41:50;;;;;;;5.40;2.20;;;;;;;10.97;68.32;96273.69;4989658;28;20204;-67
2023/04/16 10:44:17;;;;;;;5.00;2.60;;;;;;;11.02;67.67;96269.06;4989006;28;20554;-67
2023/04/16 10:46:49;;;;;;;22.37;4.00;;;;;;;11.02;67.54;96271.69;4981277;28;20432;-68
2023/04/16 10:49:22;;;;;;;4.40;2.40;;;;;;;11.06;68.39;96278.50;4984328;28;20442;-67
2023/04/16 10:52:12;;;;;;;6.13;2.70;;;;;;;10.93;67.27;96283.47;4979206;28;20452;-66
2023/04/16 10:54:39;;;;;;;3.77;2.07;;;;;;;10.84;67.90;96283.03;4977074;28;20431;-67
2023/04/16 10:57:08;;;;;;;5.93;2.53;;;;;;;10.85;68.00;96285.59;4978726;28;20439;-67
2023/04/16 10:59:35;;;;;;;8.30;2.90;;;;;;;10.81;68.61;96282.25;4992489;28;20431;-67
2023/04/16 11:02:06;;;;;;;11.73;3.73;;;;;;;10.79;68.72;96286.75;4988586;28;20451;-68
2023/04/16 11:04:34;;;;;;;4.20;2.50;;;;;;;10.54;69.43;96287.03;4978688;28;20590;-68
2023/04/16 11:07:18;;;;;;;2.70;2.27;;;;;;;10.80;68.33;96285.81;4989439;28;20420;-67
2023/04/16 11:09:46;;;;;;;5.07;3.17;;;;;;;10.92;67.96;96283.56;4980617;28;20469;-67
2023/04/16 11:12:26;;;;;;;23.93;3.37;;;;;;;10.95;67.94;96286.88;4987038;28;20476;-68
2023/04/16 11:15:14;;;;;;;11.97;4.70;;;;;;;10.86;66.80;96289.06;4985765;28;20438;-66
2023/04/16 11:17:43;;;;;;;25.70;4.97;;;;;;;10.81;67.46;96292.75;4972429;28;20499;-68
2023/04/16 11:20:15;;;;;;;6.07;2.23;;;;;;;10.72;68.36;96290.56;4982984;28;20549;-66
2023/04/16 11:22:41;;;;;;;7.40;3.40;;;;;;;10.77;68.39;96298.22;4987862;28;20432;-68
2023/04/16 11:25:07;;;;;;;9.40;3.00;;;;;;;10.73;67.90;96288.81;4971849;28;20468;-67
2023/04/16 11:27:32;;;;;;;9.10;3.53;;;;;;;10.71;68.38;96294.13;4970472;28;20955;-68
2023/04/16 11:30:03;;;;;;;4.67;2.30;;;;;;;10.70;68.89;96292.44;4977875;28;20425;-68
2023/04/16 11:32:37;;;;;;;13.00;3.13;;;;;;;10.76;69.01;96294.75;4981821;28;20193;-68
2023/04/16 11:35:11;;;;;;;15.70;5.93;;;;;;;10.88;68.57;96302.97;4977555;28;20491;-67